Time;durP1;ratioP1;P1;durP2;ratioP2;P2;SDS_P1;SDS_P2;PMS_P1;PMS_P2;Temp;Humidity;BMP_temperature;BMP_pressure;BME280_temperature;BME280_humidity;BME280_pressure;Samples;Min_cycle;Max_cycle;Signal;HPM_P1;HPM_P2
2023/03/14 00:03:50;;;;;;;9.25;5.18;;;;;;;;;;8422471;28;20048;-87
2023/03/14 00:07:53;;;;;;;12.30;6.30;;;;;;;;;;8416395;28;20044;-90
2023/03/14 00:11:58;;;;;;;10.50;5.38;;;;;;;;;;8422054;28;20055;-83
2023/03/14 00:16:04;;;;;;;14.73;6.13;;;;;;;;;;8405666;28;20048;-90
2023/03/14 00:20:10;;;;;;;9.90;5.47;;;;;;;;;;8416479;28;20070;-87
2023/03/14 00:24:13;;;;;;;9.32;4.35;;;;;;;;;;8423159;28;20051;-81
2023/03/14 00:28:18;;;;;;;14.00;5.65;;;;;;;;;;8417649;28;20040;-81
2023/03/14 00:32:21;;;;;;;10.30;5.72;;;;;;;;;;8419519;28;20058;-92
2023/03/14 00:36:24;;;;;;;9.55;4.75;;;;;;;;;;8425911;28;20048;-83
2023/03/14 00:40:27;;;;;;;6.75;3.88;;;;;;;;;;8416189;28;20617;-85
2023/03/14 00:44:31;;;;;;;8.88;4.68;;;;;;;;;;8419443;28;20052;-83
2023/03/14 00:48:35;;;;;;;9.27;5.20;;;;;;;;;;8420235;28;20051;-89
2023/03/14 00:52:38;;;;;;;9.55;5.10;;;;;;;;;;8418304;28;20048;-80
2023/03/14 00:56:40;;;;;;;7.05;4.65;;;;;;;;;;8410758;28;20040;-81
2023/03/14 01:00:45;;;;;;;4.25;2.08;;;;;;;;;;8424258;28;20044;-86
2023/03/14 01:04:49;;;;;;;8.50;3.85;;;;;;;;;;8421889;28;20052;-89
2023/03/14 01:08:52;;;;;;;8.25;4.70;;;;;;;;;;8414773;28;20048;-81
2023/03/14 01:12:55;;;;;;;10.95;4.03;;;;;;;;;;8419342;28;20064;-81
2023/03/14 01:17:00;;;;;;;9.77;4.65;;;;;;;;;;8407399;28;20049;-88
2023/03/14 01:21:03;;;;;;;11.77;4.78;;;;;;;;;;8417205;28;20044;-81
2023/03/14 01:25:07;;;;;;;7.25;3.92;;;;;;;;;;8405406;28;20051;-82
2023/03/14 01:29:10;;;;;;;7.47;3.83;;;;;;;;;;8413042;28;20039;-81
2023/03/14 01:33:14;;;;;;;7.97;4.40;;;;;;;;;;8414251;28;20136;-80
2023/03/14 01:37:17;;;;;;;15.05;3.17;;;;;;;;;;8422788;28;20404;-82
2023/03/14 01:41:22;;;;;;;7.75;3.92;;;;;;;;;;8434077;28;20048;-88
2023/03/14 01:46:02;;;;;;;8.95;3.60;;;;;;;;;;8451067;28;20052;-84
2023/03/14 01:50:11;;;;;;;8.98;4.07;;;;;;;;;;8453223;28;20192;-82
2023/03/14 01:54:20;;;;;;;6.28;3.60;;;;;;;;;;8418541;28;20131;-90
2023/03/14 01:58:27;;;;;;;7.57;3.60;;;;;;;;;;8431860;28;20512;-86
2023/03/14 02:02:30;;;;;;;7.47;3.78;;;;;;;;;;8453605;28;20456;-80
2023/03/14 02:06:41;;;;;;;3.45;1.90;;;;;;;;;;8468722;28;20044;-84
2023/03/14 02:10:46;;;;;;;6.13;3.38;;;;;;;;;;8447353;28;20055;-80
2023/03/14 02:14:49;;;;;;;7.90;3.50;;;;;;;;;;8445562;28;20439;-90
2023/03/14 02:18:52;;;;;;;6.15;3.70;;;;;;;;;;8448642;28;20521;-86
2023/03/14 02:22:57;;;;;;;7.47;3.10;;;;;;;;;;8450257;28;20051;-87
2023/03/14 02:27:13;;;;;;;6.72;3.40;;;;;;;;;;8439036;28;20056;-89
2023/03/14 02:31:16;;;;;;;8.70;3.65;;;;;;;;;;8458371;28;20047;-83
2023/03/14 02:35:23;;;;;;;6.75;3.47;;;;;;;;;;8438379;28;20433;-85
2023/03/14 02:39:33;;;;;;;7.93;3.55;;;;;;;;;;8457319;28;20399;-83
2023/03/14 02:43:40;;;;;;;5.90;3.47;;;;;;;;;;8448953;28;20040;-82
2023/03/14 02:47:46;;;;;;;8.50;3.80;;;;;;;;;;8457203;28;20044;-80
2023/03/14 02:51:49;;;;;;;8.18;3.80;;;;;;;;;;8461854;28;20047;-86
2023/03/14 02:55:52;;;;;;;7.85;3.40;;;;;;;;;;8443729;28;20093;-83
2023/03/14 02:59:59;;;;;;;6.97;3.83;;;;;;;;;;8446401;28;20135;-80
2023/03/14 03:04:03;;;;;;;5.90;3.60;;;;;;;;;;8440818;28;20123;-81
2023/03/14 03:08:06;;;;;;;6.85;3.13;;;;;;;;;;8461873;28;20051;-82
2023/03/14 03:12:09;;;;;;;6.30;3.45;;;;;;;;;;8456771;28;20138;-80
2023/03/14 03:16:14;;;;;;;39.33;15.57;;;;;;;;;;8444679;28;20483;-80
2023/03/14 03:20:17;;;;;;;476.65;270.02;;;;;;;;;;8459393;28;20051;-81
2023/03/14 03:24:20;;;;;;;102.55;58.33;;;;;;;;;;8443139;28;20092;-88
2023/03/14 03:28:23;;;;;;;40.28;23.23;;;;;;;;;;8448836;28;20040;-80
2023/03/14 03:32:28;;;;;;;36.78;19.90;;;;;;;;;;8438801;28;20050;-81
2023/03/14 03:36:31;;;;;;;21.23;11.38;;;;;;;;;;8437898;28;20063;-81
2023/03/14 03:40:34;;;;;;;10.40;6.07;;;;;;;;;;8452178;28;20889;-81
2023/03/14 03:44:37;;;;;;;16.65;5.80;;;;;;;;;;8452723;28;20088;-80
2023/03/14 03:48:42;;;;;;;11.15;5.80;;;;;;;;;;8442782;28;20050;-80
2023/03/14 03:52:44;;;;;;;9.57;5.47;;;;;;;;;;8448362;28;20050;-81
2023/03/14 03:56:47;;;;;;;13.13;6.47;;;;;;;;;;8424486;28;20471;-80
2023/03/14 04:00:50;;;;;;;5.50;3.33;;;;;;;;;;8432914;28;20389;-81
2023/03/14 04:04:55;;;;;;;32.42;19.48;;;;;;;;;;8427750;28;20388;-84
2023/03/14 04:08:57;;;;;;;19.05;14.18;;;;;;;;;;8457945;28;20134;-82
2023/03/14 04:13:00;;;;;;;6.40;3.70;;;;;;;;;;8424595;28;20056;-82
2023/03/14 04:17:03;;;;;;;7.57;4.07;;;;;;;;;;8430804;28;20052;-81
2023/03/14 04:21:08;;;;;;;7.03;3.92;;;;;;;;;;8441594;28;20051;-81
2023/03/14 04:25:10;;;;;;;9.85;6.32;;;;;;;;;;8436976;28;20487;-91
2023/03/14 04:29:13;;;;;;;11.15;4.20;;;;;;;;;;8445636;28;20035;-80
2023/03/14 04:33:17;;;;;;;6.90;3.67;;;;;;;;;;8437211;28;20040;-80
2023/03/14 04:37:21;;;;;;;6.20;3.75;;;;;;;;;;8445329;28;20046;-84
2023/03/14 04:41:24;;;;;;;4.88;3.15;;;;;;;;;;8462753;28;20451;-89
2023/03/14 04:45:27;;;;;;;5.47;3.60;;;;;;;;;;8461353;28;20071;-80
2023/03/14 04:49:30;;;;;;;6.55;3.33;;;;;;;;;;8459368;28;20049;-81
2023/03/14 04:53:36;;;;;;;6.97;4.03;;;;;;;;;;8449828;28;20168;-80
2023/03/14 04:57:38;;;;;;;7.18;4.05;;;;;;;;;;8443770;28;20044;-81
2023/03/14 05:01:42;;;;;;;9.32;4.50;;;;;;;;;;8427730;28;20534;-80
2023/03/14 05:05:45;;;;;;;7.72;3.92;;;;;;;;;;8438625;28;21958;-79
2023/03/14 05:09:49;;;;;;;7.10;4.07;;;;;;;;;;8435712;28;20070;-83
2023/03/14 05:13:52;;;;;;;7.00;3.70;;;;;;;;;;8451431;28;20047;-88
2023/03/14 05:17:55;;;;;;;6.50;3.97;;;;;;;;;;8438636;28;20050;-87
2023/03/14 05:21:58;;;;;;;5.47;3.70;;;;;;;;;;8440235;28;20381;-90
2023/03/14 05:26:02;;;;;;;6.13;3.85;;;;;;;;;;8446233;28;20126;-79
2023/03/14 05:30:07;;;;;;;7.53;4.30;;;;;;;;;;8446912;28;20055;-80
2023/03/14 05:34:10;;;;;;;7.88;3.65;;;;;;;;;;8434703;28;20674;-83
2023/03/14 05:38:13;;;;;;;6.43;3.65;;;;;;;;;;8447827;28;20073;-80
2023/03/14 05:42:16;;;;;;;6.55;3.08;;;;;;;;;;8471810;27;20039;-91
2023/03/14 05:46:19;;;;;;;7.43;3.97;;;;;;;;;;8464695;28;20044;-80
2023/03/14 05:50:22;;;;;;;8.93;3.97;;;;;;;;;;8429099;28;20532;-82
2023/03/14 05:54:25;;;;;;;7.18;3.92;;;;;;;;;;8448297;28;20044;-80
2023/03/14 05:58:30;;;;;;;6.63;3.38;;;;;;;;;;8445216;28;20396;-81
2023/03/14 06:02:32;;;;;;;7.70;3.70;;;;;;;;;;8420502;28;20040;-80
2023/03/14 06:06:35;;;;;;;8.68;4.15;;;;;;;;;;8418805;28;20040;-80
2023/03/14 06:10:38;;;;;;;10.57;4.60;;;;;;;;;;8448981;28;20059;-84
2023/03/14 06:14:42;;;;;;;9.23;5.00;;;;;;;;;;8436298;28;20149;-87
2023/03/14 06:18:46;;;;;;;6.20;2.63;;;;;;;;;;8442934;28;20164;-81
2023/03/14 06:22:49;;;;;;;5.78;3.15;;;;;;;;;;8441383;28;20047;-81
2023/03/14 06:26:52;;;;;;;7.18;3.92;;;;;;;;;;8468619;28;20043;-80
2023/03/14 06:30:57;;;;;;;9.85;4.00;;;;;;;;;;8468268;28;20089;-83
2023/03/14 06:35:00;;;;;;;7.68;4.20;;;;;;;;;;8420069;28;20049;-90
2023/03/14 06:39:06;;;;;;;8.57;4.20;;;;;;;;;;8418104;28;20115;-81
2023/03/14 06:43:09;;;;;;;9.13;4.80;;;;;;;;;;8420398;28;20513;-81
2023/03/14 06:47:14;;;;;;;12.20;6.45;;;;;;;;;;8433340;28;20396;-82
2023/03/14 06:51:17;;;;;;;4.95;3.05;;;;;;;;;;8448708;28;20050;-81
2023/03/14 06:55:20;;;;;;;8.20;4.72;;;;;;;;;;8426381;28;20151;-81
2023/03/14 06:59:23;;;;;;;7.38;4.60;;;;;;;;;;8436334;28;20100;-82
2023/03/14 07:03:28;;;;;;;10.45;4.35;;;;;;;;;;8439160;28;20150;-80
2023/03/14 07:07:30;;;;;;;8.25;4.40;;;;;;;;;;8426879;28;20044;-82
2023/03/14 07:11:34;;;;;;;7.22;3.75;;;;;;;;;;8437049;28;20051;-84
2023/03/14 07:15:37;;;;;;;6.53;3.72;;;;;;;;;;8465874;28;20040;-84
2023/03/14 07:19:41;;;;;;;8.73;4.18;;;;;;;;;;8431974;28;20047;-82
2023/03/14 07:23:44;;;;;;;6.47;3.75;;;;;;;;;;8444424;28;20047;-87
2023/03/14 07:27:48;;;;;;;9.82;4.28;;;;;;;;;;8432035;28;20270;-80
2023/03/14 07:31:51;;;;;;;7.68;3.45;;;;;;;;;;8452065;28;20108;-81
2023/03/14 07:35:55;;;;;;;9.13;4.05;;;;;;;;;;8443609;28;20120;-85
2023/03/14 07:39:58;;;;;;;7.68;3.95;;;;;;;;;;8435232;28;20048;-81
2023/03/14 07:44:01;;;;;;;7.90;3.83;;;;;;;;;;8440187;28;20118;-91
2023/03/14 07:48:04;;;;;;;6.65;3.60;;;;;;;;;;8437255;28;20044;-81
2023/03/14 07:52:09;;;;;;;7.43;3.50;;;;;;;;;;8452208;28;20043;-92
2023/03/14 07:56:12;;;;;;;7.22;3.10;;;;;;;;;;8458574;28;20479;-81
2023/03/14 08:00:15;;;;;;;8.00;3.50;;;;;;;;;;8451426;28;20067;-82
2023/03/14 08:04:18;;;;;;;6.32;3.47;;;;;;;;;;8458447;28;20055;-81
2023/03/14 08:08:22;;;;;;;8.02;3.83;;;;;;;;;;8454273;28;20048;-90
2023/03/14 08:12:25;;;;;;;7.63;3.50;;;;;;;;;;8431784;28;20105;-85
2023/03/14 08:16:29;;;;;;;6.72;3.75;;;;;;;;;;8439948;28;20082;-80
2023/03/14 08:20:32;;;;;;;6.97;3.42;;;;;;;;;;8460916;28;20043;-88
2023/03/14 08:24:36;;;;;;;7.38;3.83;;;;;;;;;;8462164;28;20047;-90
2023/03/14 08:28:39;;;;;;;8.95;3.58;;;;;;;;;;8436019;28;20050;-81
2023/03/14 08:32:42;;;;;;;6.88;3.65;;;;;;;;;;8453557;28;20122;-89
2023/03/14 08:36:46;;;;;;;5.80;3.22;;;;;;;;;;8464137;28;20126;-92
2023/03/14 08:40:50;;;;;;;10.02;3.60;;;;;;;;;;8456192;28;20048;-80
2023/03/14 08:44:53;;;;;;;7.40;3.53;;;;;;;;;;8434414;28;20050;-80
2023/03/14 08:48:56;;;;;;;7.57;3.50;;;;;;;;;;8450124;28;20044;-80
2023/03/14 08:53:00;;;;;;;5.80;3.35;;;;;;;;;;8435438;28;20051;-79
2023/03/14 08:57:04;;;;;;;5.97;3.45;;;;;;;;;;8435122;28;20085;-80
2023/03/14 09:01:09;;;;;;;6.15;3.20;;;;;;;;;;8438876;28;20044;-84
2023/03/14 09:05:13;;;;;;;6.10;3.45;;;;;;;;;;8447274;28;20044;-80
2023/03/14 09:09:16;;;;;;;6.43;3.10;;;;;;;;;;8440933;28;20044;-84
2023/03/14 09:13:21;;;;;;;6.25;3.22;;;;;;;;;;8451648;28;20059;-79
2023/03/14 09:17:24;;;;;;;7.10;3.47;;;;;;;;;;8444032;28;20044;-82
2023/03/14 09:21:27;;;;;;;6.63;3.50;;;;;;;;;;8431219;28;20070;-79
2023/03/14 09:25:30;;;;;;;5.55;3.22;;;;;;;;;;8438170;28;20040;-79
2023/03/14 09:29:33;;;;;;;5.65;3.08;;;;;;;;;;8458261;28;20055;-90
2023/03/14 09:33:37;;;;;;;4.05;2.70;;;;;;;;;;8431595;28;20044;-80
2023/03/14 09:37:40;;;;;;;5.32;2.60;;;;;;;;;;8453117;28;20101;-80
2023/03/14 09:41:46;;;;;;;10.23;3.88;;;;;;;;;;8446109;28;20065;-83
2023/03/14 09:45:51;;;;;;;5.82;3.03;;;;;;;;;;8463472;28;20051;-80
2023/03/14 09:49:54;;;;;;;6.57;2.75;;;;;;;;;;8433240;28;20104;-78
2023/03/14 09:53:57;;;;;;;7.80;2.90;;;;;;;;;;8457117;28;20067;-79
2023/03/14 09:58:06;;;;;;;7.00;3.15;;;;;;;;;;8449116;28;20044;-80
2023/03/14 10:02:19;;;;;;;14.35;3.80;;;;;;;;;;8445356;28;20491;-79
2023/03/14 10:06:25;;;;;;;8.70;3.53;;;;;;;;;;8433397;28;20074;-81
2023/03/14 10:10:28;;;;;;;6.30;3.20;;;;;;;;;;8429195;28;20059;-82
2023/03/14 10:14:35;;;;;;;8.02;3.42;;;;;;;;;;8446556;28;20050;-81
2023/03/14 10:18:46;;;;;;;6.85;3.70;;;;;;;;;;8461667;28;20043;-79
2023/03/14 10:22:52;;;;;;;7.80;3.70;;;;;;;;;;8462894;28;20153;-80
2023/03/14 10:26:57;;;;;;;7.05;3.65;;;;;;;;;;8442906;28;20499;-86
2023/03/14 10:31:01;;;;;;;5.63;3.17;;;;;;;;;;8441422;28;20049;-85
2023/03/14 10:35:20;;;;;;;8.45;3.90;;;;;;;;;;8453750;28;20069;-81
2023/03/14 10:39:38;;;;;;;7.10;3.60;;;;;;;;;;8449368;28;20052;-84
2023/03/14 10:43:42;;;;;;;9.45;4.03;;;;;;;;;;8466741;28;20395;-80
2023/03/14 10:47:50;;;;;;;8.27;3.33;;;;;;;;;;8457819;28;20041;-80
2023/03/14 10:51:55;;;;;;;7.38;3.28;;;;;;;;;;8466371;28;20054;-84
2023/03/14 10:55:58;;;;;;;7.07;3.33;;;;;;;;;;8444295;28;20479;-78
2023/03/14 11:00:07;;;;;;;7.45;3.63;;;;;;;;;;8426784;28;20070;-89
2023/03/14 11:04:25;;;;;;;9.70;4.43;;;;;;;;;;8433014;28;20101;-81
2023/03/14 11:08:36;;;;;;;18.33;7.40;;;;;;;;;;8461124;28;20035;-84
2023/03/14 11:12:48;;;;;;;8.00;3.50;;;;;;;;;;8466003;28;20499;-89
2023/03/14 11:16:54;;;;;;;;;;;;;;;;;;8453114;28;20051;-79
2023/03/14 11:21:03;;;;;;;6.10;3.08;;;;;;;;;;8440090;28;19923;-80
2023/03/14 11:25:18;;;;;;;9.48;3.53;;;;;;;;;;8434125;28;20407;-80
2023/03/14 11:29:28;;;;;;;7.93;3.30;;;;;;;;;;8436421;28;20040;-79
2023/03/14 11:33:38;;;;;;;7.82;3.55;;;;;;;;;;8447288;28;20056;-79
2023/03/14 11:37:47;;;;;;;9.70;4.18;;;;;;;;;;8449515;28;20040;-79
2023/03/14 11:41:54;;;;;;;8.88;3.67;;;;;;;;;;8434767;28;20047;-78
2023/03/14 11:46:04;;;;;;;10.00;4.20;;;;;;;;;;8443911;28;20044;-80
2023/03/14 11:50:16;;;;;;;8.00;3.80;;;;;;;;;;8446531;28;20122;-79
2023/03/14 11:54:31;;;;;;;7.93;4.22;;;;;;;;;;8452318;28;20051;-78
2023/03/14 11:58:45;;;;;;;8.40;3.83;;;;;;;;;;8443908;28;20123;-81
2023/03/14 12:02:54;;;;;;;7.70;4.70;;;;;;;;;;8440291;28;20044;-84
2023/03/14 12:06:58;;;;;;;11.13;5.80;;;;;;;;;;8425584;28;20063;-78
2023/03/14 12:11:03;;;;;;;12.75;5.18;;;;;;;;;;8431120;28;20056;-80
2023/03/14 12:15:20;;;;;;;7.47;3.80;;;;;;;;;;8426949;28;20224;-81
2023/03/14 12:19:40;;;;;;;7.93;4.38;;;;;;;;;;8442487;28;20039;-82
2023/03/14 12:23:44;;;;;;;7.55;4.10;;;;;;;;;;8419530;28;20075;-81
2023/03/14 12:28:05;;;;;;;10.55;3.92;;;;;;;;;;8439056;28;20055;-83
2023/03/14 12:32:23;;;;;;;10.45;5.22;;;;;;;;;;8441449;28;20039;-81
2023/03/14 12:37:03;;;;;;;8.80;4.43;;;;;;;;;;8464995;28;20112;-79
2023/03/14 12:41:16;;;;;;;8.88;4.30;;;;;;;;;;8401041;28;20143;-89
2023/03/14 12:45:28;;;;;;;7.38;3.95;;;;;;;;;;8426799;28;20408;-82
2023/03/14 12:49:37;;;;;;;7.72;3.63;;;;;;;;;;8421181;28;20131;-90
2023/03/14 12:54:24;;;;;;;8.75;4.32;;;;;;;;;;8419786;28;20400;-87
2023/03/14 12:58:34;;;;;;;6.32;3.30;;;;;;;;;;8389052;28;20046;-85
2023/03/14 13:02:43;;;;;;;8.10;4.00;;;;;;;;;;8413342;28;20785;-80
2023/03/14 13:06:54;;;;;;;8.55;4.10;;;;;;;;;;8421594;28;20503;-84
2023/03/14 13:10:58;;;;;;;9.02;4.13;;;;;;;;;;8413345;28;20079;-79
2023/03/14 13:15:02;;;;;;;10.80;5.35;;;;;;;;;;8406691;28;20080;-80
2023/03/14 13:19:17;;;;;;;18.73;9.75;;;;;;;;;;8417083;28;20201;-85
2023/03/14 13:23:26;;;;;;;11.20;5.10;;;;;;;;;;8410268;28;20642;-80
2023/03/14 13:27:32;;;;;;;7.72;3.80;;;;;;;;;;8407379;28;20079;-80
2023/03/14 13:31:36;;;;;;;8.10;4.95;;;;;;;;;;8418085;28;20040;-79
2023/03/14 13:35:44;;;;;;;13.65;6.30;;;;;;;;;;8434518;28;20570;-79
2023/03/14 13:39:52;;;;;;;28.80;12.07;;;;;;;;;;8433856;28;20051;-84
2023/03/14 13:44:04;;;;;;;36.65;16.35;;;;;;;;;;8421005;28;20104;-79
2023/03/14 13:48:10;;;;;;;19.65;8.98;;;;;;;;;;8418702;28;20143;-79
2023/03/14 13:52:25;;;;;;;20.67;9.10;;;;;;;;;;8420973;28;20043;-80
2023/03/14 13:56:31;;;;;;;33.38;13.10;;;;;;;;;;8412716;28;20044;-79
2023/03/14 14:00:34;;;;;;;42.45;17.83;;;;;;;;;;8424786;28;20044;-82
2023/03/14 14:04:38;;;;;;;11.20;5.15;;;;;;;;;;8422084;28;20053;-82
2023/03/14 14:08:43;;;;;;;78.95;16.23;;;;;;;;;;8408871;28;20048;-80
2023/03/14 14:12:52;;;;;;;83.80;18.58;;;;;;;;;;8416236;28;20056;-80
2023/03/14 14:16:58;;;;;;;12.95;5.80;;;;;;;;;;8417948;28;20055;-81
2023/03/14 14:21:01;;;;;;;45.33;17.77;;;;;;;;;;8425548;28;20051;-79
2023/03/14 14:25:06;;;;;;;12.18;6.22;;;;;;;;;;8423919;28;20129;-79
2023/03/14 14:29:26;;;;;;;9.15;3.97;;;;;;;;;;8422950;28;20127;-80
2023/03/14 14:33:29;;;;;;;13.02;5.70;;;;;;;;;;8423062;28;20040;-79
2023/03/14 14:37:34;;;;;;;33.05;17.08;;;;;;;;;;8416103;28;20040;-81
2023/03/14 14:41:42;;;;;;;19.00;8.60;;;;;;;;;;8419132;28;20048;-79
2023/03/14 14:45:50;;;;;;;17.83;8.50;;;;;;;;;;8422949;28;20109;-80
2023/03/14 14:49:55;;;;;;;6.88;3.80;;;;;;;;;;8418302;28;20048;-81
2023/03/14 14:54:12;;;;;;;12.60;6.53;;;;;;;;;;8420984;28;20048;-79
2023/03/14 14:58:23;;;;;;;12.93;6.45;;;;;;;;;;8412407;28;20044;-78
2023/03/14 15:02:39;;;;;;;8.52;4.20;;;;;;;;;;8423182;28;20130;-79
2023/03/14 15:06:45;;;;;;;14.50;6.13;;;;;;;;;;8412423;28;20036;-79
2023/03/14 15:10:48;;;;;;;15.98;7.10;;;;;;;;;;8420307;28;20056;-81
2023/03/14 15:14:51;;;;;;;8.68;4.88;;;;;;;;;;8422172;28;20044;-83
2023/03/14 15:18:57;;;;;;;8.63;4.57;;;;;;;;;;8425705;28;20052;-78
2023/03/14 15:23:00;;;;;;;10.45;5.13;;;;;;;;;;8427759;28;20472;-78
2023/03/14 15:27:03;;;;;;;9.40;4.22;;;;;;;;;;8424437;28;20093;-80
2023/03/14 15:31:06;;;;;;;7.22;3.42;;;;;;;;;;8417000;28;20040;-82
2023/03/14 15:35:11;;;;;;;9.38;4.68;;;;;;;;;;8416434;28;20439;-81
2023/03/14 15:39:14;;;;;;;27.13;9.70;;;;;;;;;;8429597;28;20054;-87
2023/03/14 15:43:17;;;;;;;21.20;8.82;;;;;;;;;;8414422;28;20047;-81
2023/03/14 15:47:21;;;;;;;35.05;18.83;;;;;;;;;;8427640;28;20453;-78
2023/03/14 15:51:26;;;;;;;15.27;7.28;;;;;;;;;;8414653;28;20119;-79
2023/03/14 15:55:29;;;;;;;13.57;5.45;;;;;;;;;;8426948;28;20059;-79
2023/03/14 15:59:32;;;;;;;55.13;27.20;;;;;;;;;;8415966;28;20179;-84
2023/03/14 16:03:36;;;;;;;15.82;6.97;;;;;;;;;;8423612;28;20142;-80
2023/03/14 16:07:41;;;;;;;145.45;52.50;;;;;;;;;;8414107;28;20044;-85
2023/03/14 16:11:46;;;;;;;10.90;7.13;;;;;;;;;;8440218;28;20507;-81
2023/03/14 16:15:57;;;;;;;18.45;11.95;;;;;;;;;;8419365;28;20067;-84
2023/03/14 16:20:01;;;;;;;18.33;10.52;;;;;;;;;;8410551;28;20056;-79
2023/03/14 16:24:08;;;;;;;20.58;9.65;;;;;;;;;;8418017;28;20159;-80
2023/03/14 16:28:11;;;;;;;20.83;8.77;;;;;;;;;;8426492;28;20502;-80
2023/03/14 16:32:18;;;;;;;12.57;8.00;;;;;;;;;;8435914;28;20067;-80
2023/03/14 16:36:22;;;;;;;7.05;4.45;;;;;;;;;;8432709;28;20404;-79
2023/03/14 16:40:28;;;;;;;11.60;6.53;;;;;;;;;;8414363;28;20108;-80
2023/03/14 16:44:33;;;;;;;19.77;11.02;;;;;;;;;;8418525;28;20056;-80
2023/03/14 16:48:37;;;;;;;16.45;8.90;;;;;;;;;;8402884;28;20052;-79
2023/03/14 16:52:40;;;;;;;13.82;8.10;;;;;;;;;;8405996;28;20514;-86
2023/03/14 16:56:46;;;;;;;9.93;5.28;;;;;;;;;;8416667;28;20151;-81
2023/03/14 17:00:50;;;;;;;35.42;11.15;;;;;;;;;;8425158;28;20526;-79
2023/03/14 17:04:53;;;;;;;42.85;13.05;;;;;;;;;;8406407;28;20061;-78
2023/03/14 17:08:58;;;;;;;20.55;7.60;;;;;;;;;;8410129;28;20506;-80
2023/03/14 17:13:04;;;;;;;16.85;9.32;;;;;;;;;;8423615;28;20056;-83
2023/03/14 17:17:09;;;;;;;16.52;9.32;;;;;;;;;;8425352;28;20043;-79
2023/03/14 17:21:13;;;;;;;17.17;10.00;;;;;;;;;;8419942;28;20138;-80
2023/03/14 17:25:20;;;;;;;18.73;10.52;;;;;;;;;;8390844;28;20063;-80
2023/03/14 17:29:25;;;;;;;19.08;9.60;;;;;;;;;;8440004;28;20074;-80
2023/03/14 17:33:28;;;;;;;53.13;19.48;;;;;;;;;;8431670;28;20101;-83
2023/03/14 17:37:33;;;;;;;33.03;19.30;;;;;;;;;;8444967;28;20044;-82
2023/03/14 17:41:38;;;;;;;17.85;7.75;;;;;;;;;;8431227;28;20056;-80
2023/03/14 17:45:44;;;;;;;43.38;13.18;;;;;;;;;;8425554;28;20051;-81
2023/03/14 17:49:49;;;;;;;15.95;8.98;;;;;;;;;;8423052;28;20040;-80
2023/03/14 17:53:54;;;;;;;17.92;7.20;;;;;;;;;;8409221;28;20051;-83
2023/03/14 17:57:59;;;;;;;12.48;7.22;;;;;;;;;;8410001;28;20484;-88
2023/03/14 18:02:07;;;;;;;30.38;9.15;;;;;;;;;;8423910;28;20055;-85
2023/03/14 18:06:16;;;;;;;32.45;10.98;;;;;;;;;;8419362;28;20052;-81
2023/03/14 18:10:22;;;;;;;78.68;17.35;;;;;;;;;;8420661;28;20052;-81
2023/03/14 18:14:27;;;;;;;53.63;15.32;;;;;;;;;;8418101;28;20423;-79
2023/03/14 18:18:35;;;;;;;218.30;40.58;;;;;;;;;;8416425;28;20044;-79
2023/03/14 18:22:44;;;;;;;66.53;18.50;;;;;;;;;;8416380;28;20397;-79
2023/03/14 18:26:52;;;;;;;36.83;14.23;;;;;;;;;;8421549;28;20047;-79
2023/03/14 18:31:02;;;;;;;39.83;15.27;;;;;;;;;;8423032;28;20048;-84
2023/03/14 18:35:09;;;;;;;72.50;28.08;;;;;;;;;;8428924;28;20499;-79
2023/03/14 18:39:15;;;;;;;61.35;20.13;;;;;;;;;;8442451;28;20054;-79
2023/03/14 18:43:20;;;;;;;61.85;22.98;;;;;;;;;;8427672;28;20048;-80
2023/03/14 18:47:25;;;;;;;93.70;33.08;;;;;;;;;;8425848;28;20052;-79
2023/03/14 18:51:34;;;;;;;97.43;31.25;;;;;;;;;;8424605;28;20097;-79
2023/03/14 18:55:40;;;;;;;187.85;44.17;;;;;;;;;;8415211;28;20047;-82
2023/03/14 18:59:44;;;;;;;68.72;25.30;;;;;;;;;;8422658;28;20051;-81
2023/03/14 19:03:50;;;;;;;65.57;24.38;;;;;;;;;;8422948;28;20052;-80
2023/03/14 19:07:58;;;;;;;53.80;20.77;;;;;;;;;;8425579;28;20044;-81
2023/03/14 19:12:02;;;;;;;16.15;7.38;;;;;;;;;;8420540;28;20063;-81
2023/03/14 19:16:12;;;;;;;63.47;18.77;;;;;;;;;;8426444;28;20040;-79
2023/03/14 19:20:16;;;;;;;65.93;21.23;;;;;;;;;;8440527;28;20051;-82
2023/03/14 19:24:23;;;;;;;67.68;25.25;;;;;;;;;;8439003;28;20071;-83
2023/03/14 19:28:31;;;;;;;48.67;19.88;;;;;;;;;;8430688;28;20185;-82
2023/03/14 19:32:38;;;;;;;19.48;9.30;;;;;;;;;;8411681;28;20412;-81
2023/03/14 19:36:44;;;;;;;18.42;9.23;;;;;;;;;;8419076;28;20048;-79
2023/03/14 19:41:01;;;;;;;13.73;5.82;;;;;;;;;;8411371;28;20855;-80
2023/03/14 19:45:07;;;;;;;50.47;19.77;;;;;;;;;;8422186;28;20069;-82
2023/03/14 19:49:15;;;;;;;25.15;10.68;;;;;;;;;;8412323;28;20610;-80
2023/03/14 19:53:21;;;;;;;35.80;12.10;;;;;;;;;;8426229;28;20055;-84
2023/03/14 19:57:38;;;;;;;54.15;20.00;;;;;;;;;;8418146;28;20040;-81
2023/03/14 20:01:47;;;;;;;78.75;19.17;;;;;;;;;;8419374;28;20094;-81
2023/03/14 20:05:54;;;;;;;31.58;13.55;;;;;;;;;;8411537;28;20044;-80
2023/03/14 20:09:59;;;;;;;25.10;13.65;;;;;;;;;;8408462;28;20040;-80
2023/03/14 20:14:06;;;;;;;25.38;14.63;;;;;;;;;;8419087;28;20048;-79
2023/03/14 20:18:15;;;;;;;21.55;11.77;;;;;;;;;;8420921;28;20602;-81
2023/03/14 20:22:23;;;;;;;17.60;8.88;;;;;;;;;;8425492;28;20097;-81
2023/03/14 20:26:29;;;;;;;12.60;7.20;;;;;;;;;;8434955;28;20073;-83
2023/03/14 20:30:40;;;;;;;238.25;54.15;;;;;;;;;;8435237;28;20072;-84
2023/03/14 20:34:45;;;;;;;16.95;8.95;;;;;;;;;;8425169;28;20427;-83
2023/03/14 20:38:50;;;;;;;28.80;12.23;;;;;;;;;;8425059;28;20048;-85
2023/03/14 20:42:57;;;;;;;14.70;7.25;;;;;;;;;;8424910;28;20147;-80
2023/03/14 20:47:10;;;;;;;36.53;15.88;;;;;;;;;;8408630;28;20056;-81
2023/03/14 20:51:24;;;;;;;13.52;6.03;;;;;;;;;;8434006;28;20050;-79
2023/03/14 20:55:37;;;;;;;14.95;6.00;;;;;;;;;;8439085;28;20127;-83
2023/03/14 20:59:46;;;;;;;37.67;14.77;;;;;;;;;;8416616;28;20052;-81
2023/03/14 21:03:53;;;;;;;14.15;7.05;;;;;;;;;;8404016;28;20055;-81
2023/03/14 21:07:58;;;;;;;22.75;9.73;;;;;;;;;;8437847;28;20059;-83
2023/03/14 21:12:03;;;;;;;30.02;13.77;;;;;;;;;;8424320;28;20267;-81
2023/03/14 21:16:08;;;;;;;21.95;9.50;;;;;;;;;;8422456;28;20423;-80
2023/03/14 21:20:16;;;;;;;43.30;17.58;;;;;;;;;;8412215;28;20047;-80
2023/03/14 21:24:20;;;;;;;19.77;9.73;;;;;;;;;;8406900;28;20058;-81
2023/03/14 21:28:25;;;;;;;34.25;13.13;;;;;;;;;;8410076;28;20561;-81
2023/03/14 21:32:29;;;;;;;27.90;11.73;;;;;;;;;;8419814;28;20068;-81
2023/03/14 21:36:34;;;;;;;19.58;8.85;;;;;;;;;;8413223;28;20182;-81
2023/03/14 21:40:38;;;;;;;112.57;29.55;;;;;;;;;;8404305;28;20044;-85
2023/03/14 21:44:45;;;;;;;20.80;10.80;;;;;;;;;;8445534;28;20460;-81
2023/03/14 21:48:50;;;;;;;30.23;11.82;;;;;;;;;;8459207;28;20040;-88
2023/03/14 21:52:56;;;;;;;21.50;10.73;;;;;;;;;;8461873;28;20036;-80
2023/03/14 21:56:59;;;;;;;13.80;6.47;;;;;;;;;;8448854;28;20134;-80
2023/03/14 22:01:05;;;;;;;18.10;7.38;;;;;;;;;;8461945;28;20406;-81
2023/03/14 22:05:11;;;;;;;18.50;9.18;;;;;;;;;;8435257;28;20500;-81
2023/03/14 22:09:16;;;;;;;15.07;8.30;;;;;;;;;;8461622;28;20054;-81
2023/03/14 22:13:20;;;;;;;19.48;8.43;;;;;;;;;;8461201;28;20058;-87
2023/03/14 22:17:22;;;;;;;15.73;8.40;;;;;;;;;;8465820;28;20039;-82
2023/03/14 22:21:25;;;;;;;15.60;8.00;;;;;;;;;;8467762;28;20035;-82
2023/03/14 22:25:30;;;;;;;16.42;8.18;;;;;;;;;;8467303;28;20040;-82
2023/03/14 22:29:36;;;;;;;15.38;7.53;;;;;;;;;;8467879;28;20044;-84
2023/03/14 22:33:39;;;;;;;17.15;8.88;;;;;;;;;;8467096;28;20044;-82
2023/03/14 22:37:42;;;;;;;26.75;11.85;;;;;;;;;;8467487;28;20043;-80
2023/03/14 22:41:46;;;;;;;16.20;7.65;;;;;;;;;;8466671;28;20504;-79
2023/03/14 22:45:58;;;;;;;17.58;9.38;;;;;;;;;;8466923;28;20043;-87
2023/03/14 22:50:03;;;;;;;17.38;8.30;;;;;;;;;;8466912;28;20487;-80
2023/03/14 22:54:06;;;;;;;16.35;7.82;;;;;;;;;;8467005;28;20042;-83
2023/03/14 22:58:11;;;;;;;17.63;7.00;;;;;;;;;;8466660;28;20040;-82
2023/03/14 23:02:14;;;;;;;12.20;7.50;;;;;;;;;;8466764;28;20047;-81
2023/03/14 23:06:17;;;;;;;18.23;8.23;;;;;;;;;;8466296;28;20039;-82
2023/03/14 23:10:20;;;;;;;13.00;6.35;;;;;;;;;;8466367;28;20043;-88
2023/03/14 23:14:24;;;;;;;36.13;13.45;;;;;;;;;;8466351;28;20046;-81
2023/03/14 23:18:28;;;;;;;11.57;5.90;;;;;;;;;;8466171;28;20097;-80
2023/03/14 23:22:32;;;;;;;11.35;5.53;;;;;;;;;;8448275;28;20094;-86
2023/03/14 23:26:35;;;;;;;11.45;7.10;;;;;;;;;;8456646;28;20605;-82
2023/03/14 23:30:40;;;;;;;11.57;5.13;;;;;;;;;;8452061;28;20073;-83
2023/03/14 23:34:43;;;;;;;8.73;4.88;;;;;;;;;;8465614;28;20760;-82
2023/03/14 23:38:46;;;;;;;12.15;6.68;;;;;;;;;;8465533;28;20054;-81
2023/03/14 23:42:49;;;;;;;11.02;5.82;;;;;;;;;;8465200;28;20048;-88
2023/03/14 23:46:53;;;;;;;11.85;6.85;;;;;;;;;;8465295;28;20106;-81
2023/03/14 23:50:57;;;;;;;13.13;6.20;;;;;;;;;;8465060;28;20039;-87
2023/03/14 23:55:00;;;;;;;15.73;6.80;;;;;;;;;;8464966;28;20040;-81
2023/03/14 23:59:03;;;;;;;10.18;5.05;;;;;;;;;;8464698;28;20135;-81
